createdAt,value
2023-05-19T00:00:00.000Z,7.53
2023-05-19T00:15:00.000Z,7.41
2023-05-19T00:30:00.000Z,7.39
2023-05-19T00:45:00.000Z,7.68
2023-05-19T01:00:00.000Z,7.02
2023-05-19T01:15:00.000Z,7.05
2023-05-19T01:30:00.000Z,7.11
2023-05-19T01:45:00.000Z,6.95
2023-05-19T02:00:00.000Z,7.52
2023-05-19T02:15:00.000Z,9.34
2023-05-19T02:30:00.000Z,9.54
2023-05-19T02:45:00.000Z,11.26
2023-05-19T03:00:00.000Z,11.12
2023-05-19T03:15:00.000Z,10.45
2023-05-19T03:30:00.000Z,10.95
2023-05-19T03:45:00.000Z,9.98
2023-05-19T04:00:00.000Z,11.14
2023-05-19T04:15:00.000Z,7.72
2023-05-19T04:30:00.000Z,7.67
2023-05-19T04:45:00.000Z,8.28
2023-05-19T05:00:00.000Z,7.82
2023-05-19T05:15:00.000Z,6.64
2023-05-19T05:30:00.000Z,5.02
2023-05-19T05:45:00.000Z,4.47
2023-05-19T06:00:00.000Z,4.41
2023-05-19T06:15:00.000Z,4.36
2023-05-19T06:30:00.000Z,4.46
2023-05-19T06:45:00.000Z,4.11
2023-05-19T07:00:00.000Z,4.44
2023-05-19T07:15:00.000Z,4.2
2023-05-19T07:30:00.000Z,4.24
2023-05-19T07:45:00.000Z,4.48
2023-05-19T08:00:00.000Z,5.65
2023-05-19T08:15:00.000Z,5.55
2023-05-19T08:30:00.000Z,7.06
2023-05-19T08:45:00.000Z,7.96
2023-05-19T09:00:00.000Z,8.86
2023-05-19T09:15:00.000Z,8.46
2023-05-19T09:30:00.000Z,9.18
2023-05-19T09:45:00.000Z,9.46
2023-05-19T10:00:00.000Z,10.56
2023-05-19T10:15:00.000Z,11.89
2023-05-19T10:30:00.000Z,12.81
2023-05-19T10:45:00.000Z,13.15
2023-05-19T11:00:00.000Z,13.45
2023-05-19T11:15:00.000Z,13.73
2023-05-19T11:30:00.000Z,13.22
2023-05-19T11:45:00.000Z,13.11
2023-05-19T12:00:00.000Z,15.4
2023-05-19T12:15:00.000Z,13.82
2023-05-19T12:30:00.000Z,14.48
2023-05-19T12:45:00.000Z,14.28
2023-05-19T13:00:00.000Z,14.32
2023-05-19T13:15:00.000Z,14.21
2023-05-19T13:30:00.000Z,15.14
2023-05-19T13:45:00.000Z,15.54
2023-05-19T14:00:00.000Z,14.54
2023-05-19T14:15:00.000Z,14.34
2023-05-19T14:30:00.000Z,13.74
2023-05-19T14:45:00.000Z,15.42
2023-05-19T15:00:00.000Z,15.91
2023-05-19T15:15:00.000Z,15.55
2023-05-19T15:30:00.000Z,14.85
2023-05-19T15:45:00.000Z,14.55
2023-05-19T16:00:00.000Z,14.48
2023-05-19T16:15:00.000Z,13.25
2023-05-19T16:30:00.000Z,12.75
2023-05-19T16:45:00.000Z,12.68
2023-05-19T17:00:00.000Z,12.2
2023-05-19T17:15:00.000Z,12.2
2023-05-19T17:30:00.000Z,12.52
2023-05-19T17:45:00.000Z,12.81
2023-05-19T18:00:00.000Z,13.4
2023-05-19T18:15:00.000Z,13.92
2023-05-19T18:30:00.000Z,14.36
2023-05-19T18:45:00.000Z,14.62
2023-05-19T19:00:00.000Z,14.96
2023-05-19T19:15:00.000Z,16.08
2023-05-19T19:30:00.000Z,16.91
2023-05-19T19:45:00.000Z,19.73
2023-05-19T20:00:00.000Z,22.31
2023-05-19T20:15:00.000Z,21.73
2023-05-19T20:30:00.000Z,23.12
2023-05-19T20:45:00.000Z,22.65
2023-05-19T21:00:00.000Z,24.02
2023-05-19T21:15:00.000Z,25.34
2023-05-19T21:30:00.000Z,24.56
2023-05-19T21:45:00.000Z,24.04
2023-05-19T22:00:00.000Z,22.99
2023-05-19T22:15:00.000Z,22.99
2023-05-19T22:30:00.000Z,23.72
2023-05-19T22:45:00.000Z,25.34
2023-05-19T23:00:00.000Z,25.33
2023-05-19T23:15:00.000Z,26.36
2023-05-19T23:30:00.000Z,27.15
2023-05-19T23:45:00.000Z,24.74
